TimeMDT,TemperatureF,Dew PointF,Humidity,Sea Level PressureIn,VisibilityMPH,Wind Direction,Wind SpeedMPH,Gust SpeedMPH,PrecipitationIn,Events,Conditions,WindDirDegrees,DateUTC
12:15 AM,35.2,23.9,63,30.16,10.0,NE,9.2,-,N/A,,Clear,50,2013-04-01 06:15:00
12:35 AM,34.2,24.1,67,30.17,10.0,NE,6.9,-,N/A,,Clear,50,2013-04-01 06:35:00
12:55 AM,33.1,24.3,70,30.18,10.0,NNE,8.1,-,N/A,,Clear,30,2013-04-01 06:55:00
1:15 AM,32.4,25.3,75,30.18,10.0,NE,10.4,-,N/A,,Clear,40,2013-04-01 07:15:00
1:35 AM,32.0,26.6,80,30.19,10.0,NE,10.4,-,N/A,,Clear,50,2013-04-01 07:35:00
1:55 AM,32.2,27.3,82,30.19,10.0,NNE,17.3,20.7,N/A,,Mostly Cloudy,30,2013-04-01 07:55:00
2:15 AM,32.5,27.3,81,30.19,10.0,NE,17.3,21.9,N/A,,Overcast,40,2013-04-01 08:15:00
2:35 AM,32.9,27.1,79,30.19,10.0,NNE,15.0,23.0,N/A,,Overcast,30,2013-04-01 08:35:00
2:55 AM,33.1,27.1,79,30.19,10.0,NE,8.1,-,N/A,,Overcast,40,2013-04-01 08:55:00
3:15 AM,32.9,26.6,78,30.19,10.0,NE,10.4,-,N/A,,Scattered Clouds,50,2013-04-01 09:15:00
3:35 AM,32.2,26.8,80,30.19,10.0,NE,6.9,-,N/A,,Mostly Cloudy,40,2013-04-01 09:35:00
3:55 AM,32.5,27.3,81,30.20,10.0,Calm,Calm,-,N/A,,Overcast,0,2013-04-01 09:55:00
4:15 AM,33.1,27.5,80,30.21,10.0,Calm,Calm,-,N/A,,Overcast,0,2013-04-01 10:15:00
4:35 AM,33.1,27.5,80,30.21,10.0,ENE,3.5,-,N/A,,Overcast,70,2013-04-01 10:35:00
4:55 AM,33.1,27.5,80,30.21,10.0,SE,3.5,-,N/A,,Overcast,130,2013-04-01 10:55:00
5:15 AM,32.9,27.1,79,30.22,10.0,ESE,4.6,-,N/A,,Overcast,110,2013-04-01 11:15:00
5:35 AM,32.9,26.8,78,30.22,10.0,East,4.6,-,N/A,,Overcast,100,2013-04-01 11:35:00
5:55 AM,32.7,26.6,78,30.22,10.0,Calm,Calm,-,N/A,,Overcast,0,2013-04-01 11:55:00
6:15 AM,31.8,26.1,79,30.22,10.0,Calm,Calm,-,N/A,,Overcast,0,2013-04-01 12:15:00
6:35 AM,30.9,25.7,81,30.22,10.0,Calm,Calm,-,N/A,,Mostly Cloudy,0,2013-04-01 12:35:00
6:55 AM,28.4,24.1,84,30.22,10.0,Calm,Calm,-,N/A,,Scattered Clouds,0,2013-04-01 12:55:00
7:15 AM,30.4,25.9,83,30.23,10.0,Calm,Calm,-,N/A,,Clear,0,2013-04-01 13:15:00
7:35 AM,31.6,27.0,83,30.24,10.0,Calm,Calm,-,N/A,,Clear,0,2013-04-01 13:35:00
8:15 AM,33.6,27.0,77,30.24,10.0,Calm,Calm,-,N/A,,Scattered Clouds,0,2013-04-01 14:15:00
8:35 AM,34.3,27.1,75,30.24,10.0,Calm,Calm,-,N/A,,Mostly Cloudy,0,2013-04-01 14:35:00
8:55 AM,35.6,27.3,72,30.24,10.0,Calm,Calm,-,N/A,,Mostly Cloudy,0,2013-04-01 14:55:00
9:15 AM,36.0,27.1,70,30.23,10.0,Calm,Calm,-,N/A,,Scattered Clouds,0,2013-04-01 15:15:00
9:35 AM,37.6,26.2,64,30.23,10.0,ENE,4.6,-,N/A,,Clear,70,2013-04-01 15:35:00
10:15 AM,39.9,25.7,57,30.22,10.0,NE,4.6,-,N/A,Thunderstorm,Clear,50,2013-04-01 16:15:00
10:35 AM,41.7,25.5,53,30.22,10.0,SE,3.5,-,N/A,,Clear,130,2013-04-01 16:35:00
11:15 AM,43.2,24.8,48,30.23,10.0,SE,4.6,-,N/A,,Clear,130,2013-04-01 17:15:00
11:35 AM,43.7,24.3,46,30.22,10.0,Calm,Calm,-,N/A,,Clear,0,2013-04-01 17:35:00
11:55 AM,45.7,24.4,43,30.22,10.0,ESE,5.8,-,N/A,,Clear,110,2013-04-01 17:55:00
12:15 PM,45.5,24.3,43,30.21,10.0,Calm,Calm,-,N/A,,Clear,0,2013-04-01 18:15:00
12:35 PM,46.4,23.9,41,30.20,10.0,SSE,3.5,-,N/A,,Clear,160,2013-04-01 18:35:00
12:55 PM,47.3,23.4,39,30.19,10.0,Calm,Calm,-,N/A,,Clear,0,2013-04-01 18:55:00
1:15 PM,48.7,23.5,37,30.18,10.0,SE,5.8,-,N/A,,Clear,130,2013-04-01 19:15:00
1:35 PM,49.6,23.4,36,30.17,10.0,ESE,8.1,-,N/A,,Clear,120,2013-04-01 19:35:00
1:55 PM,50.4,23.0,34,30.17,10.0,SE,3.5,-,N/A,,Clear,130,2013-04-01 19:55:00
2:15 PM,50.7,23.0,34,30.15,10.0,ESE,3.5,-,N/A,,Clear,110,2013-04-01 20:15:00
2:35 PM,50.2,22.6,34,30.15,10.0,SE,4.6,-,N/A,,Clear,140,2013-04-01 20:35:00
2:55 PM,51.6,22.8,32,30.14,10.0,SSW,6.9,-,N/A,,Clear,200,2013-04-01 20:55:00
3:15 PM,52.0,22.5,32,30.13,10.0,ESE,5.8,-,N/A,,Clear,110,2013-04-01 21:15:00
3:35 PM,52.5,22.6,31,30.12,10.0,East,4.6,-,N/A,,Clear,100,2013-04-01 21:35:00
3:55 PM,52.0,22.1,31,30.11,10.0,East,9.2,-,N/A,,Clear,90,2013-04-01 21:55:00
4:15 PM,52.0,21.9,31,30.11,10.0,East,4.6,-,N/A,,Clear,90,2013-04-01 22:15:00
4:35 PM,51.8,21.7,31,30.11,10.0,ESE,4.6,-,N/A,,Clear,120,2013-04-01 22:35:00
4:55 PM,51.3,21.7,31,30.11,10.0,Calm,Calm,-,N/A,,Clear,0,2013-04-01 22:55:00
5:15 PM,51.8,21.9,31,30.11,10.0,East,5.8,-,N/A,,Clear,100,2013-04-01 23:15:00
5:35 PM,52.2,22.1,31,30.11,10.0,ESE,5.8,-,N/A,,Clear,110,2013-04-01 23:35:00
5:55 PM,51.8,21.7,31,30.11,10.0,SE,3.5,-,N/A,,Clear,140,2013-04-01 23:55:00
6:15 PM,50.9,21.7,32,30.11,10.0,ESE,5.8,-,N/A,,Clear,110,2013-04-02 00:15:00
6:35 PM,50.5,22.1,33,30.11,10.0,SE,3.5,-,N/A,,Clear,130,2013-04-02 00:35:00
6:55 PM,48.9,22.1,35,30.12,10.0,SE,3.5,-,N/A,,Clear,140,2013-04-02 00:55:00
7:15 PM,47.1,22.1,37,30.12,10.0,SE,4.6,-,N/A,,Clear,140,2013-04-02 01:15:00
7:35 PM,45.5,22.6,41,30.12,10.0,SSE,4.6,-,N/A,,Clear,150,2013-04-02 01:35:00
7:55 PM,43.9,23.0,44,30.13,10.0,South,4.6,-,N/A,,Clear,170,2013-04-02 01:55:00
8:15 PM,42.3,23.0,47,30.14,10.0,SSE,4.6,-,N/A,,Clear,160,2013-04-02 02:15:00
8:35 PM,41.0,23.2,49,30.15,10.0,SSE,4.6,-,N/A,,Clear,150,2013-04-02 02:35:00
8:55 PM,41.0,23.0,49,30.15,10.0,SE,5.8,-,N/A,,Clear,140,2013-04-02 02:55:00
9:15 PM,40.1,23.0,51,30.15,10.0,SSE,6.9,-,N/A,,Clear,160,2013-04-02 03:15:00
9:35 PM,38.7,23.5,55,30.16,10.0,South,5.8,-,N/A,,Clear,170,2013-04-02 03:35:00
9:55 PM,39.0,24.8,57,30.16,10.0,SSE,5.8,-,N/A,,Clear,160,2013-04-02 03:55:00
10:15 PM,38.3,24.4,57,30.16,10.0,SSE,8.1,-,N/A,,Clear,160,2013-04-02 04:15:00
10:35 PM,37.9,24.8,59,30.16,10.0,South,10.4,17.3,N/A,,Clear,170,2013-04-02 04:35:00
10:55 PM,37.4,25.2,61,30.16,10.0,SSE,10.4,-,N/A,,Clear,160,2013-04-02 04:55:00
11:15 PM,36.5,25.5,64,30.16,10.0,South,9.2,-,N/A,,Clear,170,2013-04-02 05:15:00
11:35 PM,36.1,25.7,66,30.16,10.0,South,9.2,-,N/A,,Clear,180,2013-04-02 05:35:00
11:55 PM,36.1,26.1,67,30.16,10.0,South,8.1,-,N/A,,Clear,180,2013-04-02 05:55:00